Terminal Aerodrome Forecast
Issued by NWS

Home | Current Version | Previous Version | Text Only | Print | Product List | Glossary Off
Versions: 1 2 3 4 5 6 7 8 9 10 11 12 13 14 15 16

401
FTUS42 KTBW 241120
TAFRSW
TAF
KRSW 241120Z 2412/2512 29006KT P6SM SCT025 BKN120
      TEMPO 2415/2418 BKN025
     FM241800 31008KT P6SM SCT035
     FM242300 VRB03KT P6SM SCT035
     FM251000 VRB03KT 6SM BR SCT005=

USA.gov is the U.S. government's official web portal to all federal, state and local government web resources and services.